createdAt,value
2019-03-31T00:01:11.735Z,77.06
2019-03-31T00:03:39.390Z,77.21
2019-03-31T00:06:07.091Z,77.86
2019-03-31T00:08:34.992Z,78.41
2019-03-31T00:11:02.660Z,78.06
2019-03-31T00:13:30.315Z,77.66
2019-03-31T00:15:57.968Z,78.27
2019-03-31T00:18:25.649Z,78.65
2019-03-31T00:20:53.293Z,78.72
2019-03-31T00:23:20.942Z,78.18
2019-03-31T00:25:51.504Z,79.20
2019-03-31T00:28:19.303Z,78.62
2019-03-31T00:30:46.980Z,78.46
2019-03-31T00:33:14.645Z,79.60
2019-03-31T00:35:42.295Z,80.16
2019-03-31T00:38:09.951Z,80.04
2019-03-31T00:40:37.626Z,79.77
2019-03-31T00:43:05.280Z,79.68
2019-03-31T00:45:32.935Z,79.83
2019-03-31T00:48:00.622Z,81.43
2019-03-31T00:50:28.315Z,81.49
2019-03-31T00:52:55.987Z,80.95
2019-03-31T00:55:23.675Z,80.48
2019-03-31T00:57:51.340Z,82.31
2019-03-31T01:00:38.047Z,81.46
2019-03-31T01:03:05.875Z,82.17
2019-03-31T01:05:33.817Z,81.96
2019-03-31T01:08:01.461Z,82.52
2019-03-31T01:10:29.120Z,81.85
2019-03-31T01:12:56.802Z,81.90
2019-03-31T01:15:25.276Z,81.59
2019-03-31T01:17:52.957Z,81.32
2019-03-31T01:20:20.619Z,82.95
2019-03-31T01:22:48.266Z,82.21
2019-03-31T01:25:16.614Z,81.54
2019-03-31T01:27:44.440Z,82.42
2019-03-31T01:30:13.230Z,82.09
2019-03-31T01:32:41.424Z,81.71
2019-03-31T01:35:10.292Z,81.98
2019-03-31T01:37:37.983Z,83.02
2019-03-31T01:40:05.720Z,82.85
2019-03-31T01:42:33.371Z,82.43
2019-03-31T01:45:01.033Z,84.19
2019-03-31T01:47:28.713Z,83.40
2019-03-31T01:49:56.380Z,82.51
2019-03-31T01:52:24.034Z,83.92
2019-03-31T01:54:51.713Z,83.30
2019-03-31T01:57:19.487Z,83.06
2019-03-31T01:59:47.171Z,84.35
2019-03-31T02:02:20.572Z,83.37
2019-03-31T02:04:48.257Z,83.04
2019-03-31T02:07:15.907Z,84.32
2019-03-31T02:09:43.568Z,83.81
2019-03-31T02:12:11.271Z,84.00
2019-03-31T02:14:39.007Z,83.71
2019-03-31T02:17:06.678Z,84.29
2019-03-31T02:19:34.335Z,83.18
2019-03-31T02:22:01.987Z,83.46
2019-03-31T02:24:29.636Z,82.24
2019-03-31T02:26:57.296Z,83.22
2019-03-31T02:29:24.943Z,81.98
2019-03-31T02:31:52.722Z,82.41
2019-03-31T02:34:20.443Z,82.19
2019-03-31T02:36:48.117Z,81.69
2019-03-31T02:39:15.867Z,81.50
2019-03-31T02:41:43.541Z,81.43
2019-03-31T02:44:11.187Z,81.89
2019-03-31T02:46:38.851Z,81.30
2019-03-31T02:49:06.528Z,81.00
2019-03-31T02:51:34.194Z,81.19
2019-03-31T02:54:01.851Z,81.38
2019-03-31T02:56:29.508Z,82.37
2019-03-31T02:58:57.163Z,81.94
2019-03-31T03:01:24.824Z,81.25
2019-03-31T03:03:52.471Z,81.60
2019-03-31T03:06:20.189Z,82.46
2019-03-31T03:08:47.849Z,82.33
2019-03-31T03:11:15.568Z,83.62
2019-03-31T03:13:43.225Z,83.56
2019-03-31T03:16:10.877Z,82.95
2019-03-31T03:18:38.532Z,82.37
2019-03-31T03:21:06.189Z,83.16
2019-03-31T03:23:33.834Z,82.46
2019-03-31T03:26:01.493Z,82.34
2019-03-31T03:28:29.142Z,81.98
2019-03-31T03:30:56.916Z,81.83
2019-03-31T03:33:24.944Z,81.33
2019-03-31T03:35:52.608Z,81.04
2019-03-31T03:38:20.283Z,81.20
2019-03-31T03:40:48.077Z,81.14
2019-03-31T03:43:15.780Z,81.59
2019-03-31T03:45:43.440Z,81.58
2019-03-31T03:48:11.145Z,81.47
2019-03-31T03:50:38.858Z,82.04
2019-03-31T03:53:06.541Z,82.56
2019-03-31T03:55:34.225Z,81.91
2019-03-31T03:58:01.872Z,81.67
2019-03-31T04:00:29.536Z,81.99
2019-03-31T04:02:57.185Z,81.50
2019-03-31T04:05:24.849Z,81.77
2019-03-31T04:07:52.511Z,81.87
2019-03-31T04:10:20.333Z,81.42
2019-03-31T04:12:47.988Z,81.37
2019-03-31T04:15:15.644Z,80.91
2019-03-31T04:17:43.307Z,80.59
2019-03-31T04:20:10.959Z,80.90
2019-03-31T04:22:38.619Z,81.04
2019-03-31T04:25:06.301Z,81.63
2019-03-31T04:27:33.969Z,81.29
2019-03-31T04:30:01.769Z,81.60
2019-03-31T04:32:29.490Z,81.82
2019-03-31T04:34:57.258Z,82.26
2019-03-31T04:37:25.028Z,82.45
2019-03-31T04:39:52.684Z,82.94
2019-03-31T04:42:20.349Z,82.77
2019-03-31T04:44:48.019Z,82.84
2019-03-31T04:47:15.696Z,83.78
2019-03-31T04:49:43.368Z,83.50
2019-03-31T04:52:11.106Z,83.47
2019-03-31T04:54:38.763Z,83.14
2019-03-31T04:57:06.607Z,83.03
2019-03-31T04:59:34.267Z,83.40
2019-03-31T05:02:01.926Z,84.33
2019-03-31T05:04:29.593Z,84.02
2019-03-31T05:06:57.262Z,84.79
2019-03-31T05:09:24.918Z,84.53
2019-03-31T05:11:52.961Z,84.54
2019-03-31T05:14:20.596Z,84.50
2019-03-31T05:16:48.255Z,84.50
2019-03-31T05:19:15.915Z,84.46
2019-03-31T05:21:43.583Z,84.54
2019-03-31T05:24:11.262Z,84.79
2019-03-31T05:26:38.929Z,84.23
2019-03-31T05:29:06.594Z,84.05
2019-03-31T05:31:34.275Z,84.83
2019-03-31T05:34:01.933Z,85.72
2019-03-31T05:36:29.587Z,85.35
2019-03-31T05:38:57.253Z,84.61
2019-03-31T05:41:25.048Z,83.73
2019-03-31T05:44:05.094Z,83.58
2019-03-31T05:46:22.164Z,83.42
2019-03-31T05:48:49.819Z,82.42
2019-03-31T05:51:17.493Z,81.25
2019-03-31T05:53:45.143Z,80.70
2019-03-31T05:56:12.815Z,80.54
2019-03-31T05:58:40.479Z,80.25
2019-03-31T06:01:08.131Z,79.32
2019-03-31T06:03:35.784Z,78.39
2019-03-31T06:06:03.449Z,76.77
2019-03-31T06:08:31.149Z,77.74
2019-03-31T06:10:58.795Z,76.77
2019-03-31T06:13:26.452Z,75.96
2019-03-31T06:15:54.123Z,75.94
2019-03-31T06:18:21.782Z,74.72
2019-03-31T06:20:49.438Z,74.00
2019-03-31T06:23:17.092Z,73.85
2019-03-31T06:25:44.744Z,74.29
2019-03-31T06:28:12.405Z,72.82
2019-03-31T06:30:40.064Z,72.38
2019-03-31T06:33:07.735Z,71.85
2019-03-31T06:35:35.388Z,72.59
2019-03-31T06:38:03.050Z,71.72
2019-03-31T06:40:30.719Z,71.28
2019-03-31T06:42:58.395Z,70.26
2019-03-31T06:45:26.036Z,70.20
2019-03-31T06:47:53.689Z,69.62
2019-03-31T06:50:21.365Z,68.74
2019-03-31T06:52:49.022Z,68.75
2019-03-31T06:55:16.675Z,68.12
2019-03-31T06:57:44.335Z,68.17
2019-03-31T07:00:12.056Z,67.63
2019-03-31T07:02:39.721Z,66.83
2019-03-31T07:05:07.455Z,68.05
2019-03-31T07:07:35.141Z,66.53
2019-03-31T07:10:02.812Z,65.64
2019-03-31T07:12:30.489Z,64.77
2019-03-31T07:14:58.153Z,64.20
2019-03-31T07:17:25.815Z,64.05
2019-03-31T07:19:53.474Z,64.24
2019-03-31T07:22:24.233Z,63.68
2019-03-31T07:24:50.520Z,64.38
2019-03-31T07:27:18.165Z,63.80
2019-03-31T07:29:45.828Z,62.93
2019-03-31T07:32:13.492Z,61.28
2019-03-31T07:34:41.153Z,60.84
2019-03-31T07:37:08.816Z,61.28
2019-03-31T07:39:36.731Z,61.90
2019-03-31T07:42:04.615Z,60.04
2019-03-31T07:44:32.579Z,60.59
2019-03-31T07:47:00.255Z,60.74
2019-03-31T07:49:27.950Z,59.39
2019-03-31T07:51:55.635Z,59.54
2019-03-31T07:54:23.291Z,59.75
2019-03-31T07:56:50.953Z,59.77
2019-03-31T07:59:19.528Z,61.49
2019-03-31T08:01:47.183Z,59.44
2019-03-31T08:04:14.845Z,59.97
2019-03-31T08:06:42.503Z,60.06
2019-03-31T08:09:10.171Z,60.43
2019-03-31T08:11:38.035Z,58.68
2019-03-31T08:14:05.820Z,60.18
2019-03-31T08:16:33.491Z,59.79
2019-03-31T08:19:01.203Z,60.01
2019-03-31T08:21:28.868Z,59.63
2019-03-31T08:23:56.542Z,58.19
2019-03-31T08:26:24.221Z,59.31
2019-03-31T08:28:51.884Z,58.49
2019-03-31T08:31:19.563Z,58.30
2019-03-31T08:33:47.380Z,58.05
2019-03-31T08:36:15.086Z,56.74
2019-03-31T08:38:42.825Z,58.05
2019-03-31T08:41:10.481Z,57.79
2019-03-31T08:43:38.234Z,57.56
2019-03-31T08:46:06.033Z,57.84
2019-03-31T08:48:33.687Z,57.14
2019-03-31T08:55:53.227Z,55.91
2019-03-31T09:00:52.116Z,54.86
2019-03-31T09:05:45.773Z,56.39
2019-03-31T09:08:13.889Z,55.15
2019-03-31T09:10:41.546Z,56.60
2019-03-31T09:13:09.216Z,55.73
2019-03-31T09:15:37.057Z,54.74
2019-03-31T09:18:04.804Z,55.68
2019-03-31T09:20:32.471Z,54.13
2019-03-31T09:23:00.139Z,54.76
2019-03-31T09:25:27.937Z,54.86
2019-03-31T09:27:55.611Z,54.43
2019-03-31T09:30:23.276Z,54.55
2019-03-31T09:35:17.057Z,53.71
2019-03-31T09:37:44.718Z,54.00
2019-03-31T09:40:12.415Z,54.83
2019-03-31T09:45:06.127Z,57.42
2019-03-31T09:47:33.803Z,54.47
2019-03-31T09:50:01.508Z,54.67
2019-03-31T09:52:29.167Z,55.08
2019-03-31T09:54:56.844Z,56.54
2019-03-31T09:57:24.504Z,56.32
2019-03-31T09:59:52.176Z,55.86
2019-03-31T10:02:19.839Z,56.16
2019-03-31T10:04:47.511Z,56.47
2019-03-31T10:07:15.175Z,56.93
2019-03-31T10:09:42.845Z,56.84
2019-03-31T10:12:10.502Z,57.14
2019-03-31T10:14:38.196Z,55.71
2019-03-31T10:17:05.847Z,54.00
2019-03-31T10:19:33.580Z,56.11
2019-03-31T10:22:01.244Z,54.69
2019-03-31T10:24:28.911Z,53.40
2019-03-31T10:26:56.576Z,53.24
2019-03-31T10:29:24.268Z,54.10
2019-03-31T10:31:52.167Z,55.40
2019-03-31T10:34:19.791Z,56.63
2019-03-31T10:36:47.448Z,58.11
2019-03-31T10:39:15.137Z,58.51
2019-03-31T10:41:42.908Z,58.34
2019-03-31T10:44:10.570Z,58.78
2019-03-31T10:46:38.247Z,56.80
2019-03-31T10:49:05.922Z,57.65
2019-03-31T10:51:34.158Z,58.07
2019-03-31T10:54:04.564Z,55.90
2019-03-31T10:56:31.345Z,55.69
2019-03-31T10:58:59.053Z,55.55
2019-03-31T11:03:52.643Z,55.11
2019-03-31T11:06:20.310Z,54.44
2019-03-31T11:08:47.979Z,55.55
2019-03-31T11:11:15.639Z,55.08
2019-03-31T11:13:43.423Z,56.92
2019-03-31T11:16:11.096Z,56.21
2019-03-31T11:18:38.755Z,57.30
2019-03-31T11:21:13.070Z,56.94
2019-03-31T11:23:40.736Z,55.02
2019-03-31T11:26:08.600Z,56.28
2019-03-31T11:28:36.261Z,56.48
2019-03-31T11:31:03.923Z,56.11
2019-03-31T11:33:31.584Z,55.80
2019-03-31T11:35:59.254Z,55.72
2019-03-31T11:38:26.923Z,55.82
2019-03-31T11:40:54.583Z,56.03
2019-03-31T11:43:22.336Z,54.54
2019-03-31T11:45:50.170Z,56.86
2019-03-31T11:48:17.844Z,56.46
2019-03-31T11:50:45.513Z,57.19
2019-03-31T11:53:13.186Z,57.04
2019-03-31T11:55:40.852Z,56.82
2019-03-31T11:58:08.525Z,57.83
2019-03-31T12:00:40.788Z,58.05
2019-03-31T12:03:08.452Z,57.61
2019-03-31T12:05:36.403Z,58.33
2019-03-31T12:08:04.136Z,59.08
2019-03-31T12:10:31.802Z,58.36
2019-03-31T12:12:59.462Z,58.44
2019-03-31T12:15:27.154Z,59.47
2019-03-31T12:17:54.832Z,58.52
2019-03-31T12:20:22.508Z,59.37
2019-03-31T12:22:50.159Z,58.66
2019-03-31T12:25:19.804Z,57.36
2019-03-31T12:27:47.240Z,57.66
2019-03-31T12:30:14.928Z,58.23
2019-03-31T12:32:42.590Z,57.70
2019-03-31T12:35:10.260Z,58.88
2019-03-31T12:37:42.643Z,59.16
2019-03-31T12:40:07.330Z,59.59
2019-03-31T12:42:34.997Z,58.46
2019-03-31T12:45:02.700Z,58.52
2019-03-31T12:47:31.091Z,59.80
2019-03-31T12:49:58.754Z,58.54
2019-03-31T12:52:26.415Z,58.65
2019-03-31T12:54:54.166Z,57.39
2019-03-31T12:57:22.228Z,55.75
2019-03-31T12:59:49.959Z,57.01
2019-03-31T13:02:17.617Z,56.50
2019-03-31T13:04:45.279Z,57.67
2019-03-31T13:07:14.919Z,55.58
2019-03-31T13:09:42.492Z,54.10
2019-03-31T13:12:10.227Z,53.63
2019-03-31T13:14:37.889Z,52.80
2019-03-31T13:17:05.696Z,53.93
2019-03-31T13:19:33.418Z,54.06
2019-03-31T13:22:01.121Z,53.24
2019-03-31T13:24:28.803Z,53.49
2019-03-31T13:26:56.463Z,52.46
2019-03-31T13:29:24.137Z,51.59
2019-03-31T13:31:51.795Z,52.52
2019-03-31T13:34:19.458Z,51.79
2019-03-31T13:36:47.121Z,51.66
2019-03-31T13:39:14.776Z,52.74
2019-03-31T13:41:42.439Z,52.41
2019-03-31T13:44:10.104Z,52.99
2019-03-31T13:46:37.755Z,52.69
2019-03-31T13:49:05.423Z,53.38
2019-03-31T13:51:33.362Z,53.60
2019-03-31T13:54:01.046Z,53.12
2019-03-31T13:56:29.553Z,53.68
2019-03-31T13:58:57.824Z,54.28
2019-03-31T14:01:25.492Z,54.85
2019-03-31T14:03:53.234Z,54.86
2019-03-31T14:06:21.495Z,54.13
2019-03-31T14:08:49.155Z,54.24
2019-03-31T14:11:16.812Z,54.26
2019-03-31T14:13:44.479Z,55.85
2019-03-31T14:16:12.157Z,55.73
2019-03-31T14:18:39.827Z,56.03
2019-03-31T14:21:07.493Z,55.86
2019-03-31T14:23:35.167Z,55.98
2019-03-31T14:26:02.844Z,57.54
2019-03-31T14:28:30.543Z,57.72
2019-03-31T14:30:58.201Z,58.19
2019-03-31T14:33:25.851Z,58.75
2019-03-31T14:35:53.567Z,58.19
2019-03-31T14:38:21.309Z,58.61
2019-03-31T14:40:49.150Z,58.66
2019-03-31T14:43:16.864Z,58.76
2019-03-31T14:45:44.535Z,58.80
2019-03-31T14:48:12.198Z,58.91
2019-03-31T14:50:40.000Z,59.23
2019-03-31T14:53:07.676Z,58.65
2019-03-31T14:55:35.346Z,59.73
2019-03-31T14:58:03.010Z,59.28
2019-03-31T15:00:30.679Z,59.86
2019-03-31T15:02:58.347Z,60.66
2019-03-31T15:05:26.135Z,59.93
2019-03-31T15:07:53.894Z,61.01
2019-03-31T15:10:21.563Z,60.72
2019-03-31T15:12:49.235Z,60.93
2019-03-31T15:15:16.981Z,60.98
2019-03-31T15:17:44.647Z,60.19
2019-03-31T15:20:12.398Z,60.47
2019-03-31T15:22:40.064Z,61.08
2019-03-31T15:25:07.746Z,61.02
2019-03-31T15:27:35.419Z,60.38
2019-03-31T15:30:03.076Z,60.84
2019-03-31T15:32:30.739Z,61.08
2019-03-31T15:34:58.399Z,60.87
2019-03-31T15:37:26.149Z,60.52
2019-03-31T15:39:53.807Z,60.60
2019-03-31T15:42:21.832Z,61.14
2019-03-31T15:44:49.519Z,61.17
2019-03-31T15:47:17.188Z,61.65
2019-03-31T15:49:44.852Z,62.41
2019-03-31T15:52:12.539Z,61.77
2019-03-31T15:54:40.205Z,62.03
2019-03-31T15:57:07.865Z,62.54
2019-03-31T15:59:35.980Z,62.17
2019-03-31T16:02:03.664Z,61.77
2019-03-31T16:04:31.335Z,61.71
2019-03-31T16:06:59.002Z,60.20
2019-03-31T16:09:26.665Z,60.47
2019-03-31T16:11:54.397Z,61.16
2019-03-31T16:14:22.093Z,60.43
2019-03-31T16:16:49.759Z,60.43
2019-03-31T16:19:17.430Z,59.61
2019-03-31T16:21:45.103Z,59.31
2019-03-31T16:24:12.778Z,59.65
2019-03-31T16:26:40.459Z,58.47
2019-03-31T16:29:08.124Z,58.19
2019-03-31T16:31:35.807Z,58.94
2019-03-31T16:34:03.476Z,58.89
2019-03-31T16:36:31.147Z,59.26
2019-03-31T16:38:58.835Z,59.17
2019-03-31T16:41:26.488Z,58.88
2019-03-31T16:43:54.150Z,58.91
2019-03-31T16:46:21.811Z,58.01
2019-03-31T16:48:49.538Z,58.76
2019-03-31T16:51:17.196Z,58.12
2019-03-31T16:53:44.851Z,58.31
2019-03-31T16:56:12.512Z,58.55
2019-03-31T16:58:40.209Z,58.28
2019-03-31T17:01:07.856Z,58.68
2019-03-31T17:03:35.607Z,58.77
2019-03-31T17:06:03.268Z,58.63
2019-03-31T17:10:56.884Z,57.78
2019-03-31T17:15:50.474Z,57.20
2019-03-31T17:18:18.144Z,58.45
2019-03-31T17:20:45.800Z,57.40
2019-03-31T17:23:13.455Z,57.59
2019-03-31T17:25:41.130Z,57.89
2019-03-31T17:28:10.334Z,57.25
2019-03-31T17:33:04.148Z,57.57
2019-03-31T17:35:31.800Z,57.29
2019-03-31T17:37:59.476Z,58.25
2019-03-31T17:40:27.120Z,57.46
2019-03-31T17:42:54.767Z,56.79
2019-03-31T17:45:22.446Z,57.17
2019-03-31T17:47:50.099Z,57.42
2019-03-31T17:50:17.768Z,57.79
2019-03-31T17:52:45.431Z,58.38
2019-03-31T17:55:13.079Z,57.19
2019-03-31T17:57:42.433Z,57.57
2019-03-31T18:02:36.035Z,56.96
2019-03-31T18:07:29.615Z,57.26
2019-03-31T18:09:57.300Z,57.97
2019-03-31T18:12:24.991Z,57.89
2019-03-31T18:14:52.637Z,58.20
2019-03-31T18:17:20.423Z,57.40
2019-03-31T18:19:48.079Z,57.08
2019-03-31T18:22:16.961Z,57.69
2019-03-31T18:24:44.940Z,57.59
2019-03-31T18:27:12.618Z,57.75
2019-03-31T18:29:40.268Z,58.13
2019-03-31T18:32:07.919Z,58.70
2019-03-31T18:34:35.602Z,59.15
2019-03-31T18:37:03.280Z,59.65
2019-03-31T18:39:30.941Z,59.41
2019-03-31T18:41:58.576Z,59.62
2019-03-31T18:44:26.223Z,60.18
2019-03-31T18:46:53.875Z,60.23
2019-03-31T18:49:21.527Z,59.92
2019-03-31T18:51:49.181Z,60.03
2019-03-31T18:54:25.290Z,60.57
2019-03-31T18:56:59.355Z,60.91
2019-03-31T18:59:37.305Z,61.52
2019-03-31T19:02:18.896Z,61.72
2019-03-31T19:04:56.520Z,61.89
2019-03-31T19:07:35.944Z,61.76
2019-03-31T19:10:24.677Z,61.66
2019-03-31T19:12:49.835Z,61.73
2019-03-31T19:15:22.782Z,62.39
2019-03-31T19:18:09.502Z,62.81
2019-03-31T19:20:47.102Z,63.04
2019-03-31T19:23:31.049Z,63.15
2019-03-31T19:26:04.016Z,63.68
2019-03-31T19:28:41.971Z,63.04
2019-03-31T19:31:17.481Z,63.55
2019-03-31T19:33:50.408Z,63.71
2019-03-31T19:36:28.369Z,63.53
2019-03-31T19:39:08.999Z,64.20
2019-03-31T19:41:41.991Z,64.39
2019-03-31T19:44:17.803Z,64.49
2019-03-31T19:46:53.136Z,64.57
2019-03-31T19:49:29.294Z,65.06
2019-03-31T19:52:06.781Z,65.37
2019-03-31T19:54:45.951Z,65.69
2019-03-31T19:57:35.676Z,66.39
2019-03-31T20:00:14.317Z,66.09
2019-03-31T20:02:52.885Z,66.40
2019-03-31T20:05:25.816Z,67.19
2019-03-31T20:08:08.899Z,66.68
2019-03-31T20:10:43.715Z,67.60
2019-03-31T20:13:22.809Z,67.55
2019-03-31T20:16:08.207Z,67.17
2019-03-31T20:18:42.925Z,67.52
2019-03-31T20:21:32.115Z,68.31
2019-03-31T20:24:04.344Z,68.66
2019-03-31T20:26:43.071Z,67.90
2019-03-31T20:29:17.284Z,69.27
2019-03-31T20:31:58.660Z,69.75
2019-03-31T20:34:34.107Z,69.99
2019-03-31T20:37:19.283Z,71.00
2019-03-31T20:40:05.536Z,71.19
2019-03-31T20:42:53.256Z,70.97
2019-03-31T21:02:23.128Z,72.04
2019-03-31T21:04:50.808Z,72.33
2019-03-31T21:07:18.494Z,72.58
2019-03-31T21:09:46.154Z,72.57
2019-03-31T21:12:13.920Z,73.30
2019-03-31T21:14:41.576Z,72.14
2019-03-31T21:17:09.225Z,70.61
2019-03-31T21:19:36.938Z,70.99
2019-03-31T21:22:04.588Z,69.39
2019-03-31T21:24:32.255Z,70.45
2019-03-31T21:26:59.903Z,70.42
2019-03-31T21:29:27.556Z,69.69
2019-03-31T21:31:55.199Z,69.27
2019-03-31T21:34:22.850Z,69.71
2019-03-31T21:36:50.495Z,70.17
2019-03-31T21:39:18.152Z,70.46
2019-03-31T21:41:45.807Z,71.14
2019-03-31T21:44:13.462Z,71.29
2019-03-31T21:46:41.110Z,71.88
2019-03-31T21:49:08.783Z,71.92
2019-03-31T21:51:36.445Z,71.16
2019-03-31T21:54:04.108Z,71.16
2019-03-31T21:56:31.750Z,71.04
2019-03-31T21:58:59.398Z,70.76
2019-03-31T22:01:27.036Z,70.99
2019-03-31T22:03:54.691Z,71.15
2019-03-31T22:06:22.327Z,71.48
2019-03-31T22:08:49.984Z,69.91
2019-03-31T22:11:17.655Z,71.00
2019-03-31T22:13:45.315Z,72.23
2019-03-31T22:16:13.030Z,72.52
2019-03-31T22:18:41.300Z,73.04
2019-03-31T22:21:09.247Z,73.73
2019-03-31T22:23:36.949Z,73.70
2019-03-31T22:26:04.604Z,74.17
2019-03-31T22:28:32.362Z,74.80
2019-03-31T22:31:00.095Z,75.58
2019-03-31T22:33:27.745Z,75.72
2019-03-31T22:36:00.746Z,76.11
2019-03-31T22:38:28.393Z,75.34
2019-03-31T22:40:56.191Z,75.14
2019-03-31T22:43:23.828Z,75.79
2019-03-31T22:45:51.475Z,75.87
2019-03-31T22:48:19.254Z,75.28
2019-03-31T22:50:46.891Z,75.35
2019-03-31T22:53:14.552Z,76.19
2019-03-31T22:55:42.196Z,75.78
2019-03-31T22:58:10.019Z,75.48
2019-03-31T23:00:37.762Z,75.45
2019-03-31T23:03:05.548Z,74.78
2019-03-31T23:05:33.247Z,74.84
2019-03-31T23:08:00.883Z,75.55
2019-03-31T23:10:28.535Z,75.64
2019-03-31T23:12:56.191Z,74.66
2019-03-31T23:15:23.844Z,74.52
2019-03-31T23:17:51.512Z,75.38
2019-03-31T23:20:19.171Z,74.38
2019-03-31T23:22:46.851Z,74.04
2019-03-31T23:25:14.901Z,76.20
2019-03-31T23:27:42.614Z,74.83
2019-03-31T23:30:11.154Z,73.81
2019-03-31T23:32:38.815Z,75.30
2019-03-31T23:35:06.608Z,74.61
2019-03-31T23:37:34.463Z,74.51
2019-03-31T23:40:02.303Z,73.68
2019-03-31T23:42:29.955Z,73.56
2019-03-31T23:44:57.606Z,72.57
2019-03-31T23:47:25.247Z,69.90
2019-03-31T23:49:52.892Z,67.14
2019-03-31T23:52:20.547Z,63.72
2019-03-31T23:54:48.191Z,66.16
2019-03-31T23:57:15.959Z,68.05
2019-03-31T23:59:43.899Z,69.43
